< Typhoon 196907 1969 Season Typhoon 196909 >
Typhoon 196908 (BETTY)
General InformationTrack Information on Google Maps || Disaster Info.ResourceGoogle EarthGE AnimationAtom FeedGeoJSON
Detalied Best Track (Time Zone = UTC)
Year Month Day Hour Lat. Long. Pressure (hPa) Wind (kt) Class Image Chart
1969 8 4 00 9.2 142.7 1006 0 2 -- Chart
1969 8 4 06 10.2 141.8 1006 0 2 -- Chart
1969 8 4 12 11.2 140.8 1006 0 2 -- Chart
1969 8 4 18 12.2 139.8 1006 0 2 -- Chart
1969 8 5 00 13.0 138.8 1006 0 2 -- Chart
1969 8 5 06 14.4 137.6 992 0 9 -- Chart
1969 8 5 12 15.5 136.5 990 0 9 -- Chart
1969 8 5 18 16.6 135.2 990 0 9 -- Chart
1969 8 6 00 17.4 134.1 990 0 9 -- Chart
1969 8 6 06 18.7 132.3 985 0 9 -- Chart
1969 8 6 12 20.0 130.6 985 0 9 -- Chart
1969 8 6 18 20.6 129.4 980 0 9 -- Chart
1969 8 7 00 21.6 127.8 975 0 9 -- Chart
1969 8 7 06 22.5 126.5 975 0 9 -- Chart
1969 8 7 12 23.4 124.9 970 0 9 -- Chart
1969 8 7 18 24.1 123.4 960 0 9 -- Chart
1969 8 8 00 25.0 122.5 960 0 9 -- Chart
1969 8 8 06 25.8 121.3 965 0 9 -- Chart
1969 8 8 12 26.4 119.9 975 0 9 -- Chart
1969 8 8 18 27.1 118.0 985 0 9 -- Chart
1969 8 9 00 27.5 117.2 992 0 2 -- Chart
1969 8 9 06 28.1 116.0 994 0 2 -- Chart
1969 8 9 12 28.5 114.9 994 0 2 -- Chart
1969 8 9 18 28.8 114.0 994 0 2 -- Chart
1969 8 10 00 29.2 113.3 994 0 2 -- Chart
1969 8 10 06 29.4 112.8 994 0 2 -- Chart
1969 8 10 12 29.7 112.5 994 0 2 -- Chart
1969 8 10 18 30.0 112.7 996 0 2 -- Chart
1969 8 11 00 30.3 112.9 998 0 6 -- Chart
1969 8 11 06 30.5 113.6 998 0 6 -- Chart
Japan Meteorological Agency Best Track Data | Correction Date : 1989-06-01
< Typhoon 196907 1969 Season Typhoon 196909 >

Help